sensor_id;sensor_type;location;lat;lon;timestamp;P1;durP1;ratioP1;P2;durP2;ratioP2
23140;SDS011;11739;54.750;9.124;2023-07-16T00:00:08;6.40;;;2.28;;
23140;SDS011;11739;54.750;9.124;2023-07-16T00:02:34;5.30;;;2.10;;
23140;SDS011;11739;54.750;9.124;2023-07-16T00:04:59;6.60;;;2.30;;
23140;SDS011;11739;54.750;9.124;2023-07-16T00:07:24;4.53;;;2.20;;
23140;SDS011;11739;54.750;9.124;2023-07-16T00:09:50;4.68;;;2.10;;
23140;SDS011;11739;54.750;9.124;2023-07-16T00:12:15;7.30;;;2.30;;
23140;SDS011;11739;54.750;9.124;2023-07-16T00:14:40;4.32;;;1.77;;
23140;SDS011;11739;54.750;9.124;2023-07-16T00:17:06;4.10;;;2.00;;
23140;SDS011;11739;54.750;9.124;2023-07-16T00:19:31;5.63;;;1.80;;
23140;SDS011;11739;54.750;9.124;2023-07-16T00:21:56;4.47;;;2.05;;
23140;SDS011;11739;54.750;9.124;2023-07-16T00:24:21;4.00;;;1.80;;
23140;SDS011;11739;54.750;9.124;2023-07-16T00:26:47;5.40;;;2.00;;
23140;SDS011;11739;54.750;9.124;2023-07-16T00:29:12;6.75;;;2.42;;
23140;SDS011;11739;54.750;9.124;2023-07-16T00:31:37;4.47;;;2.08;;
23140;SDS011;11739;54.750;9.124;2023-07-16T00:34:03;4.10;;;2.00;;
23140;SDS011;11739;54.750;9.124;2023-07-16T00:36:28;4.95;;;2.08;;
23140;SDS011;11739;54.750;9.124;2023-07-16T00:38:53;5.90;;;1.98;;
23140;SDS011;11739;54.750;9.124;2023-07-16T00:41:19;4.72;;;2.25;;
23140;SDS011;11739;54.750;9.124;2023-07-16T00:43:44;5.22;;;2.08;;
23140;SDS011;11739;54.750;9.124;2023-07-16T00:46:09;4.88;;;2.17;;
23140;SDS011;11739;54.750;9.124;2023-07-16T00:48:35;7.18;;;2.38;;
23140;SDS011;11739;54.750;9.124;2023-07-16T00:51:00;4.95;;;2.25;;
23140;SDS011;11739;54.750;9.124;2023-07-16T00:53:26;5.70;;;2.08;;
23140;SDS011;11739;54.750;9.124;2023-07-16T00:55:52;4.40;;;2.13;;
23140;SDS011;11739;54.750;9.124;2023-07-16T00:58:17;5.30;;;2.17;;
23140;SDS011;11739;54.750;9.124;2023-07-16T01:00:42;4.68;;;1.75;;
23140;SDS011;11739;54.750;9.124;2023-07-16T01:03:08;4.13;;;1.85;;
23140;SDS011;11739;54.750;9.124;2023-07-16T01:05:36;4.88;;;1.92;;
23140;SDS011;11739;54.750;9.124;2023-07-16T01:08:30;5.15;;;2.13;;
23140;SDS011;11739;54.750;9.124;2023-07-16T01:10:57;3.67;;;1.85;;
23140;SDS011;11739;54.750;9.124;2023-07-16T01:13:23;5.28;;;2.20;;
23140;SDS011;11739;54.750;9.124;2023-07-16T01:15:49;5.93;;;2.03;;
23140;SDS011;11739;54.750;9.124;2023-07-16T01:18:15;4.93;;;2.20;;
23140;SDS011;11739;54.750;9.124;2023-07-16T01:20:40;3.90;;;1.90;;
23140;SDS011;11739;54.750;9.124;2023-07-16T01:23:26;6.10;;;2.20;;
23140;SDS011;11739;54.750;9.124;2023-07-16T01:29:05;2.70;;;1.63;;
23140;SDS011;11739;54.750;9.124;2023-07-16T01:31:42;4.30;;;1.67;;
23140;SDS011;11739;54.750;9.124;2023-07-16T01:34:08;6.93;;;2.30;;
23140;SDS011;11739;54.750;9.124;2023-07-16T01:36:34;4.07;;;1.98;;
23140;SDS011;11739;54.750;9.124;2023-07-16T01:39:01;6.78;;;1.90;;
23140;SDS011;11739;54.750;9.124;2023-07-16T01:41:26;11.05;;;2.10;;
23140;SDS011;11739;54.750;9.124;2023-07-16T01:43:51;3.42;;;1.92;;
23140;SDS011;11739;54.750;9.124;2023-07-16T01:46:17;2.75;;;1.42;;
23140;SDS011;11739;54.750;9.124;2023-07-16T01:48:42;3.78;;;1.70;;
23140;SDS011;11739;54.750;9.124;2023-07-16T01:51:08;6.88;;;1.90;;
23140;SDS011;11739;54.750;9.124;2023-07-16T01:53:33;7.25;;;2.08;;
23140;SDS011;11739;54.750;9.124;2023-07-16T01:56:00;5.80;;;2.25;;
23140;SDS011;11739;54.750;9.124;2023-07-16T01:58:26;3.28;;;2.13;;
23140;SDS011;11739;54.750;9.124;2023-07-16T02:00:53;4.80;;;2.38;;
23140;SDS011;11739;54.750;9.124;2023-07-16T02:03:19;5.78;;;2.25;;
23140;SDS011;11739;54.750;9.124;2023-07-16T02:05:44;5.47;;;2.42;;
23140;SDS011;11739;54.750;9.124;2023-07-16T02:08:09;6.30;;;2.47;;
23140;SDS011;11739;54.750;9.124;2023-07-16T02:10:35;6.35;;;3.20;;
23140;SDS011;11739;54.750;9.124;2023-07-16T02:13:00;6.07;;;2.33;;
23140;SDS011;11739;54.750;9.124;2023-07-16T02:15:25;8.73;;;3.20;;
23140;SDS011;11739;54.750;9.124;2023-07-16T02:17:51;10.57;;;3.45;;
23140;SDS011;11739;54.750;9.124;2023-07-16T02:20:16;9.05;;;3.22;;
23140;SDS011;11739;54.750;9.124;2023-07-16T02:22:41;8.95;;;3.42;;
23140;SDS011;11739;54.750;9.124;2023-07-16T02:25:07;8.10;;;3.55;;
23140;SDS011;11739;54.750;9.124;2023-07-16T02:27:32;9.05;;;3.63;;
23140;SDS011;11739;54.750;9.124;2023-07-16T02:29:57;7.65;;;3.42;;
23140;SDS011;11739;54.750;9.124;2023-07-16T02:32:23;10.93;;;3.78;;
23140;SDS011;11739;54.750;9.124;2023-07-16T02:34:48;8.75;;;4.40;;
23140;SDS011;11739;54.750;9.124;2023-07-16T02:37:13;9.07;;;3.70;;
23140;SDS011;11739;54.750;9.124;2023-07-16T02:39:39;6.28;;;3.63;;
23140;SDS011;11739;54.750;9.124;2023-07-16T02:42:05;9.00;;;4.10;;
23140;SDS011;11739;54.750;9.124;2023-07-16T02:44:31;8.48;;;4.40;;
23140;SDS011;11739;54.750;9.124;2023-07-16T02:46:56;9.45;;;3.78;;
23140;SDS011;11739;54.750;9.124;2023-07-16T02:49:21;9.77;;;4.15;;
23140;SDS011;11739;54.750;9.124;2023-07-16T02:51:47;10.25;;;4.45;;
23140;SDS011;11739;54.750;9.124;2023-07-16T02:54:12;11.68;;;4.38;;
23140;SDS011;11739;54.750;9.124;2023-07-16T02:56:37;10.77;;;4.65;;
23140;SDS011;11739;54.750;9.124;2023-07-16T02:59:03;7.95;;;4.60;;
23140;SDS011;11739;54.750;9.124;2023-07-16T03:01:28;11.50;;;4.88;;
23140;SDS011;11739;54.750;9.124;2023-07-16T03:03:53;11.02;;;4.47;;
23140;SDS011;11739;54.750;9.124;2023-07-16T03:06:19;12.20;;;5.03;;
23140;SDS011;11739;54.750;9.124;2023-07-16T03:08:44;11.88;;;4.68;;
23140;SDS011;11739;54.750;9.124;2023-07-16T03:11:09;10.40;;;4.22;;
23140;SDS011;11739;54.750;9.124;2023-07-16T03:13:34;9.20;;;4.18;;
23140;SDS011;11739;54.750;9.124;2023-07-16T03:16:00;10.40;;;4.20;;
23140;SDS011;11739;54.750;9.124;2023-07-16T03:18:32;10.70;;;4.10;;
23140;SDS011;11739;54.750;9.124;2023-07-16T03:20:57;9.63;;;4.22;;
23140;SDS011;11739;54.750;9.124;2023-07-16T03:23:23;8.88;;;4.30;;
23140;SDS011;11739;54.750;9.124;2023-07-16T03:25:49;8.25;;;4.00;;
23140;SDS011;11739;54.750;9.124;2023-07-16T03:28:14;9.98;;;4.03;;
23140;SDS011;11739;54.750;9.124;2023-07-16T03:30:39;8.77;;;3.95;;
23140;SDS011;11739;54.750;9.124;2023-07-16T03:33:05;9.07;;;3.88;;
23140;SDS011;11739;54.750;9.124;2023-07-16T03:35:30;11.13;;;3.90;;
23140;SDS011;11739;54.750;9.124;2023-07-16T03:37:55;7.22;;;4.22;;
23140;SDS011;11739;54.750;9.124;2023-07-16T03:40:24;7.05;;;3.33;;
23140;SDS011;11739;54.750;9.124;2023-07-16T03:42:51;6.20;;;3.80;;
23140;SDS011;11739;54.750;9.124;2023-07-16T03:45:16;7.60;;;3.83;;
23140;SDS011;11739;54.750;9.124;2023-07-16T03:47:41;8.80;;;4.05;;
23140;SDS011;11739;54.750;9.124;2023-07-16T03:50:07;7.85;;;3.90;;
23140;SDS011;11739;54.750;9.124;2023-07-16T03:52:32;8.07;;;4.57;;
23140;SDS011;11739;54.750;9.124;2023-07-16T03:54:58;7.00;;;3.88;;
23140;SDS011;11739;54.750;9.124;2023-07-16T03:57:23;6.63;;;3.78;;
23140;SDS011;11739;54.750;9.124;2023-07-16T03:59:48;7.28;;;3.42;;
23140;SDS011;11739;54.750;9.124;2023-07-16T04:02:14;9.40;;;4.05;;
23140;SDS011;11739;54.750;9.124;2023-07-16T04:04:39;7.30;;;3.28;;
23140;SDS011;11739;54.750;9.124;2023-07-16T04:07:04;8.60;;;3.90;;
23140;SDS011;11739;54.750;9.124;2023-07-16T04:09:30;7.43;;;3.58;;
23140;SDS011;11739;54.750;9.124;2023-07-16T04:11:55;7.20;;;3.88;;
23140;SDS011;11739;54.750;9.124;2023-07-16T04:14:20;9.13;;;3.90;;
23140;SDS011;11739;54.750;9.124;2023-07-16T04:16:46;7.70;;;3.72;;
23140;SDS011;11739;54.750;9.124;2023-07-16T04:19:11;10.13;;;4.05;;
23140;SDS011;11739;54.750;9.124;2023-07-16T04:21:36;8.63;;;3.85;;
23140;SDS011;11739;54.750;9.124;2023-07-16T04:24:02;8.05;;;3.90;;
23140;SDS011;11739;54.750;9.124;2023-07-16T04:26:28;6.38;;;3.88;;
23140;SDS011;11739;54.750;9.124;2023-07-16T04:28:53;7.55;;;3.78;;
23140;SDS011;11739;54.750;9.124;2023-07-16T04:31:18;10.48;;;4.25;;
23140;SDS011;11739;54.750;9.124;2023-07-16T04:33:43;11.13;;;4.35;;
23140;SDS011;11739;54.750;9.124;2023-07-16T04:36:09;9.15;;;4.20;;
23140;SDS011;11739;54.750;9.124;2023-07-16T04:38:34;7.38;;;4.13;;
23140;SDS011;11739;54.750;9.124;2023-07-16T04:40:59;9.63;;;4.25;;
23140;SDS011;11739;54.750;9.124;2023-07-16T04:43:25;12.32;;;4.53;;
23140;SDS011;11739;54.750;9.124;2023-07-16T04:45:50;10.48;;;4.53;;
23140;SDS011;11739;54.750;9.124;2023-07-16T04:48:15;11.00;;;4.60;;
23140;SDS011;11739;54.750;9.124;2023-07-16T04:50:41;10.07;;;4.57;;
23140;SDS011;11739;54.750;9.124;2023-07-16T04:53:06;11.18;;;4.80;;
23140;SDS011;11739;54.750;9.124;2023-07-16T04:55:35;8.65;;;4.35;;
23140;SDS011;11739;54.750;9.124;2023-07-16T04:58:01;6.75;;;4.30;;
23140;SDS011;11739;54.750;9.124;2023-07-16T05:00:26;10.30;;;4.90;;
23140;SDS011;11739;54.750;9.124;2023-07-16T05:02:52;7.78;;;4.10;;
23140;SDS011;11739;54.750;9.124;2023-07-16T05:05:17;9.95;;;4.05;;
23140;SDS011;11739;54.750;9.124;2023-07-16T05:07:42;8.05;;;4.22;;
23140;SDS011;11739;54.750;9.124;2023-07-16T05:10:08;10.20;;;3.90;;
23140;SDS011;11739;54.750;9.124;2023-07-16T05:12:33;7.00;;;3.78;;
23140;SDS011;11739;54.750;9.124;2023-07-16T05:14:59;8.10;;;3.90;;
23140;SDS011;11739;54.750;9.124;2023-07-16T05:17:24;8.27;;;4.22;;
23140;SDS011;11739;54.750;9.124;2023-07-16T05:19:49;8.25;;;4.00;;
23140;SDS011;11739;54.750;9.124;2023-07-16T05:22:14;8.02;;;3.55;;
23140;SDS011;11739;54.750;9.124;2023-07-16T05:24:40;10.20;;;3.80;;
23140;SDS011;11739;54.750;9.124;2023-07-16T05:27:05;8.88;;;3.38;;
23140;SDS011;11739;54.750;9.124;2023-07-16T05:29:30;8.40;;;3.40;;
23140;SDS011;11739;54.750;9.124;2023-07-16T05:31:56;6.88;;;3.22;;
23140;SDS011;11739;54.750;9.124;2023-07-16T05:34:21;7.18;;;3.70;;
23140;SDS011;11739;54.750;9.124;2023-07-16T05:36:46;7.50;;;3.95;;
23140;SDS011;11739;54.750;9.124;2023-07-16T05:39:12;7.13;;;3.85;;
23140;SDS011;11739;54.750;9.124;2023-07-16T05:41:38;8.13;;;3.97;;
23140;SDS011;11739;54.750;9.124;2023-07-16T05:44:04;9.63;;;4.05;;
23140;SDS011;11739;54.750;9.124;2023-07-16T05:46:29;7.60;;;3.97;;
23140;SDS011;11739;54.750;9.124;2023-07-16T05:48:55;10.18;;;4.13;;
23140;SDS011;11739;54.750;9.124;2023-07-16T05:51:20;9.25;;;4.15;;
23140;SDS011;11739;54.750;9.124;2023-07-16T05:53:45;9.25;;;3.92;;
23140;SDS011;11739;54.750;9.124;2023-07-16T05:56:10;11.90;;;4.57;;
23140;SDS011;11739;54.750;9.124;2023-07-16T05:58:36;7.28;;;4.60;;
23140;SDS011;11739;54.750;9.124;2023-07-16T06:01:01;10.40;;;5.13;;
23140;SDS011;11739;54.750;9.124;2023-07-16T06:03:26;8.68;;;4.85;;
23140;SDS011;11739;54.750;9.124;2023-07-16T06:05:52;11.30;;;5.15;;
23140;SDS011;11739;54.750;9.124;2023-07-16T06:08:17;7.90;;;5.00;;
23140;SDS011;11739;54.750;9.124;2023-07-16T06:10:42;12.10;;;5.28;;
23140;SDS011;11739;54.750;9.124;2023-07-16T06:13:08;10.82;;;5.20;;
23140;SDS011;11739;54.750;9.124;2023-07-16T06:15:33;8.15;;;4.88;;
23140;SDS011;11739;54.750;9.124;2023-07-16T06:17:58;10.30;;;4.85;;
23140;SDS011;11739;54.750;9.124;2023-07-16T06:20:23;9.32;;;4.90;;
23140;SDS011;11739;54.750;9.124;2023-07-16T06:22:49;9.77;;;4.78;;
23140;SDS011;11739;54.750;9.124;2023-07-16T06:25:14;9.30;;;5.00;;
23140;SDS011;11739;54.750;9.124;2023-07-16T06:27:39;8.45;;;4.75;;
23140;SDS011;11739;54.750;9.124;2023-07-16T06:30:05;9.52;;;4.72;;
23140;SDS011;11739;54.750;9.124;2023-07-16T06:32:31;8.82;;;4.55;;
23140;SDS011;11739;54.750;9.124;2023-07-16T06:34:56;7.53;;;4.50;;
23140;SDS011;11739;54.750;9.124;2023-07-16T06:37:22;9.00;;;4.60;;
23140;SDS011;11739;54.750;9.124;2023-07-16T06:39:47;8.77;;;4.80;;
23140;SDS011;11739;54.750;9.124;2023-07-16T06:42:12;10.02;;;4.60;;
23140;SDS011;11739;54.750;9.124;2023-07-16T06:44:38;10.50;;;4.63;;
23140;SDS011;11739;54.750;9.124;2023-07-16T06:47:03;8.75;;;4.57;;
23140;SDS011;11739;54.750;9.124;2023-07-16T06:49:29;11.20;;;4.65;;
23140;SDS011;11739;54.750;9.124;2023-07-16T06:51:54;10.20;;;4.65;;
23140;SDS011;11739;54.750;9.124;2023-07-16T06:54:20;8.35;;;4.38;;
23140;SDS011;11739;54.750;9.124;2023-07-16T06:56:45;9.52;;;4.80;;
23140;SDS011;11739;54.750;9.124;2023-07-16T06:59:10;11.18;;;4.38;;
23140;SDS011;11739;54.750;9.124;2023-07-16T07:01:36;9.55;;;5.13;;
23140;SDS011;11739;54.750;9.124;2023-07-16T07:04:01;9.00;;;4.75;;
23140;SDS011;11739;54.750;9.124;2023-07-16T07:06:26;8.48;;;5.05;;
23140;SDS011;11739;54.750;9.124;2023-07-16T07:08:52;8.93;;;4.80;;
23140;SDS011;11739;54.750;9.124;2023-07-16T07:11:17;8.05;;;5.45;;
23140;SDS011;11739;54.750;9.124;2023-07-16T07:13:42;11.88;;;5.55;;
23140;SDS011;11739;54.750;9.124;2023-07-16T07:16:07;11.30;;;5.20;;
23140;SDS011;11739;54.750;9.124;2023-07-16T07:18:33;8.60;;;4.57;;
23140;SDS011;11739;54.750;9.124;2023-07-16T07:20:58;8.00;;;4.55;;
23140;SDS011;11739;54.750;9.124;2023-07-16T07:23:23;8.07;;;5.25;;
23140;SDS011;11739;54.750;9.124;2023-07-16T07:25:49;11.02;;;5.22;;
23140;SDS011;11739;54.750;9.124;2023-07-16T07:28:15;9.75;;;5.05;;
23140;SDS011;11739;54.750;9.124;2023-07-16T07:30:40;9.10;;;4.75;;
23140;SDS011;11739;54.750;9.124;2023-07-16T07:33:05;10.85;;;5.28;;
23140;SDS011;11739;54.750;9.124;2023-07-16T07:35:31;9.32;;;4.75;;
23140;SDS011;11739;54.750;9.124;2023-07-16T07:37:56;9.10;;;4.90;;
23140;SDS011;11739;54.750;9.124;2023-07-16T07:40:21;11.85;;;5.13;;
23140;SDS011;11739;54.750;9.124;2023-07-16T07:42:47;7.85;;;4.90;;
23140;SDS011;11739;54.750;9.124;2023-07-16T07:45:12;8.32;;;4.95;;
23140;SDS011;11739;54.750;9.124;2023-07-16T07:47:37;12.23;;;5.75;;
23140;SDS011;11739;54.750;9.124;2023-07-16T07:50:03;10.40;;;5.43;;
23140;SDS011;11739;54.750;9.124;2023-07-16T07:52:28;8.98;;;5.40;;
23140;SDS011;11739;54.750;9.124;2023-07-16T07:54:53;11.82;;;6.10;;
23140;SDS011;11739;54.750;9.124;2023-07-16T07:57:19;9.27;;;5.43;;
23140;SDS011;11739;54.750;9.124;2023-07-16T07:59:44;11.07;;;5.60;;
23140;SDS011;11739;54.750;9.124;2023-07-16T08:02:10;13.10;;;5.72;;
23140;SDS011;11739;54.750;9.124;2023-07-16T08:04:35;11.60;;;5.15;;
23140;SDS011;11739;54.750;9.124;2023-07-16T08:07:00;8.32;;;4.95;;
23140;SDS011;11739;54.750;9.124;2023-07-16T08:09:26;11.20;;;4.88;;
23140;SDS011;11739;54.750;9.124;2023-07-16T08:11:51;8.63;;;5.05;;
23140;SDS011;11739;54.750;9.124;2023-07-16T08:14:16;9.30;;;4.63;;
23140;SDS011;11739;54.750;9.124;2023-07-16T08:16:42;10.23;;;4.50;;
23140;SDS011;11739;54.750;9.124;2023-07-16T08:19:07;10.07;;;4.70;;
23140;SDS011;11739;54.750;9.124;2023-07-16T08:21:32;10.18;;;4.90;;
23140;SDS011;11739;54.750;9.124;2023-07-16T08:23:58;8.80;;;5.03;;
23140;SDS011;11739;54.750;9.124;2023-07-16T08:26:23;12.68;;;5.13;;
23140;SDS011;11739;54.750;9.124;2023-07-16T08:28:48;11.70;;;5.00;;
23140;SDS011;11739;54.750;9.124;2023-07-16T08:31:14;10.85;;;4.68;;
23140;SDS011;11739;54.750;9.124;2023-07-16T08:33:39;10.77;;;5.28;;
23140;SDS011;11739;54.750;9.124;2023-07-16T08:36:04;8.45;;;4.95;;
23140;SDS011;11739;54.750;9.124;2023-07-16T08:38:30;11.95;;;4.93;;
23140;SDS011;11739;54.750;9.124;2023-07-16T08:40:55;9.88;;;4.07;;
23140;SDS011;11739;54.750;9.124;2023-07-16T08:43:20;6.15;;;4.40;;
23140;SDS011;11739;54.750;9.124;2023-07-16T08:45:46;7.85;;;4.57;;
23140;SDS011;11739;54.750;9.124;2023-07-16T08:48:11;7.40;;;4.45;;
23140;SDS011;11739;54.750;9.124;2023-07-16T08:50:37;10.88;;;5.05;;
23140;SDS011;11739;54.750;9.124;2023-07-16T08:53:06;10.90;;;4.78;;
23140;SDS011;11739;54.750;9.124;2023-07-16T08:55:31;10.40;;;4.72;;
23140;SDS011;11739;54.750;9.124;2023-07-16T08:57:57;8.20;;;4.43;;
23140;SDS011;11739;54.750;9.124;2023-07-16T09:00:23;9.23;;;4.43;;
23140;SDS011;11739;54.750;9.124;2023-07-16T09:02:49;9.60;;;4.47;;
23140;SDS011;11739;54.750;9.124;2023-07-16T09:05:15;9.77;;;4.10;;
23140;SDS011;11739;54.750;9.124;2023-07-16T09:07:44;8.27;;;4.32;;
23140;SDS011;11739;54.750;9.124;2023-07-16T09:10:11;8.77;;;4.10;;
23140;SDS011;11739;54.750;9.124;2023-07-16T09:12:41;7.13;;;3.75;;
23140;SDS011;11739;54.750;9.124;2023-07-16T09:15:09;7.95;;;3.90;;
23140;SDS011;11739;54.750;9.124;2023-07-16T09:17:35;7.68;;;3.90;;
23140;SDS011;11739;54.750;9.124;2023-07-16T09:20:02;7.93;;;4.13;;
23140;SDS011;11739;54.750;9.124;2023-07-16T09:22:27;9.48;;;3.53;;
23140;SDS011;11739;54.750;9.124;2023-07-16T09:24:54;9.63;;;4.20;;
23140;SDS011;11739;54.750;9.124;2023-07-16T09:27:19;6.57;;;3.72;;
23140;SDS011;11739;54.750;9.124;2023-07-16T09:29:44;8.15;;;4.00;;
23140;SDS011;11739;54.750;9.124;2023-07-16T09:32:10;8.75;;;3.70;;
23140;SDS011;11739;54.750;9.124;2023-07-16T09:34:35;6.40;;;3.30;;
23140;SDS011;11739;54.750;9.124;2023-07-16T09:37:01;5.13;;;3.75;;
23140;SDS011;11739;54.750;9.124;2023-07-16T09:39:27;7.10;;;4.10;;
23140;SDS011;11739;54.750;9.124;2023-07-16T09:41:52;8.43;;;3.70;;
23140;SDS011;11739;54.750;9.124;2023-07-16T09:44:18;9.38;;;4.03;;
23140;SDS011;11739;54.750;9.124;2023-07-16T09:46:44;7.38;;;3.55;;
23140;SDS011;11739;54.750;9.124;2023-07-16T09:49:10;4.68;;;3.53;;
23140;SDS011;11739;54.750;9.124;2023-07-16T09:51:36;8.70;;;3.72;;
23140;SDS011;11739;54.750;9.124;2023-07-16T09:54:02;9.82;;;3.40;;
23140;SDS011;11739;54.750;9.124;2023-07-16T09:56:29;10.50;;;3.85;;
23140;SDS011;11739;54.750;9.124;2023-07-16T09:58:58;7.03;;;4.07;;
23140;SDS011;11739;54.750;9.124;2023-07-16T10:01:24;9.10;;;3.80;;
23140;SDS011;11739;54.750;9.124;2023-07-16T10:03:49;6.32;;;3.88;;
23140;SDS011;11739;54.750;9.124;2023-07-16T10:06:15;8.27;;;4.05;;
23140;SDS011;11739;54.750;9.124;2023-07-16T10:08:40;7.78;;;3.85;;
23140;SDS011;11739;54.750;9.124;2023-07-16T10:11:14;6.47;;;4.00;;
23140;SDS011;11739;54.750;9.124;2023-07-16T10:13:40;6.97;;;3.92;;
23140;SDS011;11739;54.750;9.124;2023-07-16T10:16:06;7.07;;;3.92;;
23140;SDS011;11739;54.750;9.124;2023-07-16T10:18:31;7.20;;;4.45;;
23140;SDS011;11739;54.750;9.124;2023-07-16T10:21:06;5.68;;;3.60;;
23140;SDS011;11739;54.750;9.124;2023-07-16T10:23:39;6.90;;;3.88;;
23140;SDS011;11739;54.750;9.124;2023-07-16T10:26:05;7.50;;;4.30;;
23140;SDS011;11739;54.750;9.124;2023-07-16T10:28:31;5.18;;;3.90;;
23140;SDS011;11739;54.750;9.124;2023-07-16T10:30:57;6.28;;;4.00;;
23140;SDS011;11739;54.750;9.124;2023-07-16T10:33:23;8.48;;;4.45;;
23140;SDS011;11739;54.750;9.124;2023-07-16T10:35:48;8.63;;;3.83;;
23140;SDS011;11739;54.750;9.124;2023-07-16T10:38:14;7.82;;;3.83;;
23140;SDS011;11739;54.750;9.124;2023-07-16T10:40:43;7.50;;;3.80;;
23140;SDS011;11739;54.750;9.124;2023-07-16T10:43:09;12.00;;;4.00;;
23140;SDS011;11739;54.750;9.124;2023-07-16T10:45:35;10.27;;;4.40;;
23140;SDS011;11739;54.750;9.124;2023-07-16T10:48:00;12.35;;;4.43;;
23140;SDS011;11739;54.750;9.124;2023-07-16T10:50:25;8.23;;;4.00;;
23140;SDS011;11739;54.750;9.124;2023-07-16T10:52:51;10.73;;;4.20;;
23140;SDS011;11739;54.750;9.124;2023-07-16T10:55:20;11.00;;;4.43;;
23140;SDS011;11739;54.750;9.124;2023-07-16T10:57:47;15.07;;;4.50;;
23140;SDS011;11739;54.750;9.124;2023-07-16T11:00:13;8.60;;;4.10;;
23140;SDS011;11739;54.750;9.124;2023-07-16T11:02:39;6.88;;;4.38;;
23140;SDS011;11739;54.750;9.124;2023-07-16T11:05:04;10.57;;;4.65;;
23140;SDS011;11739;54.750;9.124;2023-07-16T11:07:30;9.90;;;4.53;;
23140;SDS011;11739;54.750;9.124;2023-07-16T11:09:55;10.75;;;4.93;;
23140;SDS011;11739;54.750;9.124;2023-07-16T11:12:21;9.48;;;4.13;;
23140;SDS011;11739;54.750;9.124;2023-07-16T11:14:47;9.60;;;4.43;;
23140;SDS011;11739;54.750;9.124;2023-07-16T11:17:17;9.02;;;4.75;;
23140;SDS011;11739;54.750;9.124;2023-07-16T11:19:46;10.70;;;4.40;;
23140;SDS011;11739;54.750;9.124;2023-07-16T11:22:13;7.00;;;4.55;;
23140;SDS011;11739;54.750;9.124;2023-07-16T11:24:40;8.57;;;4.68;;
23140;SDS011;11739;54.750;9.124;2023-07-16T11:27:06;11.25;;;4.65;;
23140;SDS011;11739;54.750;9.124;2023-07-16T11:29:38;7.47;;;4.40;;
23140;SDS011;11739;54.750;9.124;2023-07-16T11:32:03;7.20;;;4.22;;
23140;SDS011;11739;54.750;9.124;2023-07-16T11:34:29;8.30;;;4.38;;
23140;SDS011;11739;54.750;9.124;2023-07-16T11:36:54;10.50;;;4.20;;
23140;SDS011;11739;54.750;9.124;2023-07-16T11:39:20;9.43;;;4.18;;
23140;SDS011;11739;54.750;9.124;2023-07-16T11:41:57;8.10;;;4.32;;
23140;SDS011;11739;54.750;9.124;2023-07-16T11:44:23;8.20;;;4.38;;
23140;SDS011;11739;54.750;9.124;2023-07-16T11:46:48;9.63;;;4.10;;
23140;SDS011;11739;54.750;9.124;2023-07-16T11:49:14;8.05;;;4.32;;
23140;SDS011;11739;54.750;9.124;2023-07-16T11:51:40;8.80;;;4.45;;
23140;SDS011;11739;54.750;9.124;2023-07-16T11:54:05;7.13;;;4.53;;
23140;SDS011;11739;54.750;9.124;2023-07-16T11:56:30;7.25;;;4.30;;
23140;SDS011;11739;54.750;9.124;2023-07-16T11:58:56;9.50;;;4.45;;
23140;SDS011;11739;54.750;9.124;2023-07-16T12:01:21;8.50;;;4.80;;
23140;SDS011;11739;54.750;9.124;2023-07-16T12:03:46;7.97;;;4.70;;
23140;SDS011;11739;54.750;9.124;2023-07-16T12:06:12;8.30;;;4.57;;
23140;SDS011;11739;54.750;9.124;2023-07-16T12:08:37;8.23;;;4.22;;
23140;SDS011;11739;54.750;9.124;2023-07-16T12:11:02;8.52;;;4.80;;
23140;SDS011;11739;54.750;9.124;2023-07-16T12:13:27;9.50;;;4.63;;
23140;SDS011;11739;54.750;9.124;2023-07-16T12:15:53;7.75;;;4.45;;
23140;SDS011;11739;54.750;9.124;2023-07-16T12:18:18;7.47;;;3.92;;
23140;SDS011;11739;54.750;9.124;2023-07-16T12:20:43;7.53;;;3.80;;
23140;SDS011;11739;54.750;9.124;2023-07-16T12:23:09;8.30;;;3.83;;
23140;SDS011;11739;54.750;9.124;2023-07-16T12:25:34;6.13;;;3.95;;
23140;SDS011;11739;54.750;9.124;2023-07-16T12:28:00;6.28;;;3.60;;
23140;SDS011;11739;54.750;9.124;2023-07-16T12:30:25;7.43;;;4.20;;
23140;SDS011;11739;54.750;9.124;2023-07-16T12:32:51;8.45;;;3.95;;
23140;SDS011;11739;54.750;9.124;2023-07-16T12:35:16;10.20;;;4.10;;
23140;SDS011;11739;54.750;9.124;2023-07-16T12:37:41;9.55;;;4.03;;
23140;SDS011;11739;54.750;9.124;2023-07-16T12:40:07;7.95;;;4.15;;
23140;SDS011;11739;54.750;9.124;2023-07-16T12:42:32;7.15;;;3.92;;
23140;SDS011;11739;54.750;9.124;2023-07-16T12:44:58;8.93;;;4.53;;
23140;SDS011;11739;54.750;9.124;2023-07-16T12:47:23;7.00;;;4.32;;
23140;SDS011;11739;54.750;9.124;2023-07-16T12:49:48;7.63;;;4.45;;
23140;SDS011;11739;54.750;9.124;2023-07-16T12:52:14;10.73;;;4.47;;
23140;SDS011;11739;54.750;9.124;2023-07-16T12:54:39;7.38;;;4.28;;
23140;SDS011;11739;54.750;9.124;2023-07-16T12:57:04;8.45;;;4.28;;
23140;SDS011;11739;54.750;9.124;2023-07-16T12:59:30;8.27;;;4.25;;
23140;SDS011;11739;54.750;9.124;2023-07-16T13:01:55;6.80;;;4.47;;
23140;SDS011;11739;54.750;9.124;2023-07-16T13:04:20;6.97;;;4.00;;
23140;SDS011;11739;54.750;9.124;2023-07-16T13:06:46;7.85;;;4.32;;
23140;SDS011;11739;54.750;9.124;2023-07-16T13:09:11;6.13;;;3.72;;
23140;SDS011;11739;54.750;9.124;2023-07-16T13:11:36;5.38;;;4.03;;
23140;SDS011;11739;54.750;9.124;2023-07-16T13:14:02;6.88;;;3.85;;
23140;SDS011;11739;54.750;9.124;2023-07-16T13:16:27;8.40;;;4.28;;
23140;SDS011;11739;54.750;9.124;2023-07-16T13:18:52;9.75;;;4.68;;
23140;SDS011;11739;54.750;9.124;2023-07-16T13:21:18;11.40;;;4.60;;
23140;SDS011;11739;54.750;9.124;2023-07-16T13:23:43;9.40;;;4.60;;
23140;SDS011;11739;54.750;9.124;2023-07-16T13:26:08;7.65;;;4.32;;
23140;SDS011;11739;54.750;9.124;2023-07-16T13:28:34;12.57;;;5.38;;
23140;SDS011;11739;54.750;9.124;2023-07-16T13:30:59;9.43;;;4.43;;
23140;SDS011;11739;54.750;9.124;2023-07-16T13:33:24;7.95;;;4.65;;
23140;SDS011;11739;54.750;9.124;2023-07-16T13:35:50;7.38;;;4.43;;
23140;SDS011;11739;54.750;9.124;2023-07-16T13:38:15;8.23;;;4.50;;
23140;SDS011;11739;54.750;9.124;2023-07-16T13:40:40;10.43;;;4.00;;
23140;SDS011;11739;54.750;9.124;2023-07-16T13:43:05;7.32;;;4.13;;
23140;SDS011;11739;54.750;9.124;2023-07-16T13:45:31;14.27;;;4.60;;
23140;SDS011;11739;54.750;9.124;2023-07-16T13:47:56;7.47;;;4.47;;
23140;SDS011;11739;54.750;9.124;2023-07-16T13:50:21;12.88;;;5.18;;
23140;SDS011;11739;54.750;9.124;2023-07-16T13:52:47;10.13;;;4.70;;
23140;SDS011;11739;54.750;9.124;2023-07-16T13:55:12;10.50;;;4.88;;
23140;SDS011;11739;54.750;9.124;2023-07-16T13:57:37;12.25;;;5.57;;
23140;SDS011;11739;54.750;9.124;2023-07-16T14:00:03;14.02;;;5.40;;
23140;SDS011;11739;54.750;9.124;2023-07-16T14:02:28;10.88;;;5.35;;
23140;SDS011;11739;54.750;9.124;2023-07-16T14:04:54;14.77;;;6.15;;
23140;SDS011;11739;54.750;9.124;2023-07-16T14:07:19;13.60;;;5.50;;
23140;SDS011;11739;54.750;9.124;2023-07-16T14:09:44;10.75;;;5.57;;
23140;SDS011;11739;54.750;9.124;2023-07-16T14:12:09;16.15;;;6.25;;
23140;SDS011;11739;54.750;9.124;2023-07-16T14:14:35;12.52;;;5.78;;
23140;SDS011;11739;54.750;9.124;2023-07-16T14:17:00;12.25;;;5.03;;
23140;SDS011;11739;54.750;9.124;2023-07-16T14:19:25;11.40;;;5.72;;
23140;SDS011;11739;54.750;9.124;2023-07-16T14:21:51;14.00;;;6.13;;
23140;SDS011;11739;54.750;9.124;2023-07-16T14:24:16;13.32;;;5.45;;
23140;SDS011;11739;54.750;9.124;2023-07-16T14:26:41;11.65;;;5.47;;
23140;SDS011;11739;54.750;9.124;2023-07-16T14:29:07;10.98;;;5.50;;
23140;SDS011;11739;54.750;9.124;2023-07-16T14:31:32;10.75;;;5.60;;
23140;SDS011;11739;54.750;9.124;2023-07-16T14:33:57;15.48;;;5.63;;
23140;SDS011;11739;54.750;9.124;2023-07-16T14:36:23;11.85;;;5.65;;